createdAt,value
2023-12-16T00:02:27.437Z,3.36
2023-12-16T00:04:59.069Z,3.36
2023-12-16T00:07:30.785Z,3.34
2023-12-16T00:10:02.591Z,3.33
2023-12-16T00:12:34.616Z,3.33
2023-12-16T00:15:07.588Z,3.33
2023-12-16T00:17:39.884Z,3.35
2023-12-16T00:20:13.194Z,3.36
2023-12-16T00:22:46.749Z,3.42
2023-12-16T00:25:18.920Z,3.44
2023-12-16T00:27:50.626Z,3.48
2023-12-16T00:30:22.342Z,3.50
2023-12-16T00:32:54.106Z,3.50
2023-12-16T00:35:26.085Z,3.51
2023-12-16T00:37:57.746Z,3.51
2023-12-16T00:40:29.678Z,3.49
2023-12-16T00:43:01.518Z,3.42
2023-12-16T00:45:33.205Z,3.45
2023-12-16T00:48:04.994Z,3.45
2023-12-16T00:50:39.452Z,3.45
2023-12-16T00:53:11.146Z,3.46
2023-12-16T00:55:42.975Z,3.46
2023-12-16T00:58:14.673Z,3.47
2023-12-16T01:00:46.867Z,3.48
2023-12-16T01:03:18.948Z,3.51
2023-12-16T01:05:50.835Z,3.55
2023-12-16T01:08:22.404Z,3.58
2023-12-16T01:10:54.032Z,3.58
2023-12-16T01:13:25.632Z,3.55
2023-12-16T01:15:57.447Z,3.56
2023-12-16T01:18:29.299Z,3.56
2023-12-16T01:21:01.016Z,3.57
2023-12-16T01:23:32.844Z,3.60
2023-12-16T01:26:04.826Z,3.62
2023-12-16T01:28:36.425Z,3.61
2023-12-16T01:31:09.379Z,3.60
2023-12-16T01:33:41.108Z,3.62
2023-12-16T01:36:13.191Z,3.65
2023-12-16T01:38:44.763Z,3.64
2023-12-16T01:41:16.460Z,3.72
2023-12-16T01:43:48.404Z,3.75
2023-12-16T01:46:20.870Z,3.74
2023-12-16T01:48:52.719Z,3.73
2023-12-16T01:51:24.592Z,3.71
2023-12-16T01:53:56.554Z,3.67
2023-12-16T01:56:29.953Z,3.63
2023-12-16T01:59:01.958Z,3.61
2023-12-16T02:01:34.049Z,3.61
2023-12-16T02:04:06.029Z,3.64
2023-12-16T02:06:41.192Z,3.63
2023-12-16T02:09:14.392Z,3.63
2023-12-16T02:11:46.677Z,3.64
2023-12-16T02:14:18.460Z,3.66
2023-12-16T02:16:50.440Z,3.69
2023-12-16T02:19:27.723Z,3.73
2023-12-16T02:21:59.776Z,3.76
2023-12-16T02:24:32.886Z,3.78
2023-12-16T02:27:04.954Z,3.77
2023-12-16T02:29:36.729Z,3.75
2023-12-16T02:32:10.013Z,3.72
2023-12-16T02:34:41.643Z,3.72
2023-12-16T02:37:14.190Z,3.71
2023-12-16T02:39:45.843Z,3.66
2023-12-16T02:42:17.634Z,3.65
2023-12-16T02:44:49.501Z,3.62
2023-12-16T02:47:21.164Z,3.61
2023-12-16T02:49:53.087Z,3.61
2023-12-16T02:52:25.214Z,3.62
2023-12-16T02:54:56.903Z,3.65
2023-12-16T02:57:28.941Z,3.67
2023-12-16T03:00:00.588Z,3.70
2023-12-16T03:02:32.337Z,3.69
2023-12-16T03:05:04.625Z,3.68
2023-12-16T03:07:36.472Z,3.65
2023-12-16T03:10:09.538Z,3.65
2023-12-16T03:12:41.401Z,3.67
2023-12-16T03:15:13.946Z,3.68
2023-12-16T03:17:47.232Z,3.71
2023-12-16T03:20:19.050Z,3.74
2023-12-16T03:22:50.799Z,3.75
2023-12-16T03:25:22.688Z,3.76
2023-12-16T03:27:54.407Z,3.78
2023-12-16T03:30:26.011Z,3.81
2023-12-16T03:32:57.687Z,3.81
2023-12-16T03:35:29.403Z,3.82
2023-12-16T03:38:01.670Z,3.81
2023-12-16T03:40:33.267Z,3.78
2023-12-16T03:43:05.057Z,3.80
2023-12-16T03:45:36.716Z,3.81
2023-12-16T03:48:09.107Z,3.81
2023-12-16T03:50:40.738Z,3.81
2023-12-16T03:53:12.586Z,3.84
2023-12-16T03:55:44.472Z,3.87
2023-12-16T03:58:16.230Z,3.90
2023-12-16T04:00:48.290Z,3.92
2023-12-16T04:03:20.036Z,3.95
2023-12-16T04:05:51.900Z,4.01
2023-12-16T04:08:23.644Z,4.06
2023-12-16T04:10:55.296Z,4.05
2023-12-16T04:13:27.127Z,4.05
2023-12-16T04:15:58.773Z,4.07
2023-12-16T04:18:30.947Z,4.06
2023-12-16T04:21:03.341Z,4.05
2023-12-16T04:23:35.017Z,4.05
2023-12-16T04:26:08.709Z,4.05
2023-12-16T04:28:40.707Z,4.05
2023-12-16T04:31:18.643Z,4.06
2023-12-16T04:33:51.170Z,4.08
2023-12-16T04:36:23.408Z,4.07
2023-12-16T04:38:55.276Z,4.06
2023-12-16T04:41:26.908Z,4.07
2023-12-16T04:43:59.020Z,4.08
2023-12-16T04:46:30.734Z,4.09
2023-12-16T04:49:03.039Z,4.12
2023-12-16T04:51:34.734Z,4.15
2023-12-16T04:54:06.733Z,4.19
2023-12-16T04:56:38.453Z,4.21
2023-12-16T04:59:10.119Z,4.22
2023-12-16T05:01:41.833Z,4.27
2023-12-16T05:04:13.677Z,4.30
2023-12-16T05:06:45.554Z,4.29
2023-12-16T05:09:17.539Z,4.23
2023-12-16T05:11:49.139Z,4.21
2023-12-16T05:14:20.928Z,4.21
2023-12-16T05:16:52.593Z,4.20
2023-12-16T05:19:24.286Z,4.23
2023-12-16T05:21:56.098Z,4.23
2023-12-16T05:24:27.850Z,4.22
2023-12-16T05:26:59.524Z,4.22
2023-12-16T05:29:31.269Z,4.22
2023-12-16T05:32:03.491Z,4.25
2023-12-16T05:34:35.307Z,4.29
2023-12-16T05:37:07.395Z,4.32
2023-12-16T05:39:39.045Z,4.34
2023-12-16T05:42:10.816Z,4.33
2023-12-16T05:44:42.701Z,4.29
2023-12-16T05:47:14.517Z,4.31
2023-12-16T05:49:47.103Z,4.31
2023-12-16T05:52:19.041Z,4.32
2023-12-16T05:54:50.854Z,4.31
2023-12-16T05:57:22.716Z,4.31
2023-12-16T05:59:54.607Z,4.33
2023-12-16T06:02:26.680Z,4.35
2023-12-16T06:04:58.840Z,4.37
2023-12-16T06:07:30.594Z,4.38
2023-12-16T06:10:04.211Z,4.39
2023-12-16T06:12:37.382Z,4.43
2023-12-16T06:15:11.006Z,4.44
2023-12-16T06:17:43.121Z,4.47
2023-12-16T06:20:16.032Z,4.48
2023-12-16T06:22:47.920Z,4.47
2023-12-16T06:25:19.534Z,4.48
2023-12-16T06:27:51.404Z,4.46
2023-12-16T06:30:23.500Z,4.44
2023-12-16T06:32:55.331Z,4.46
2023-12-16T06:35:27.281Z,4.48
2023-12-16T06:37:58.900Z,4.48
2023-12-16T06:40:32.894Z,4.46
2023-12-16T06:43:04.783Z,4.45
2023-12-16T06:45:39.442Z,4.47
2023-12-16T06:48:09.768Z,4.50
2023-12-16T06:50:41.482Z,4.53
2023-12-16T06:53:13.708Z,4.55
2023-12-16T06:55:45.849Z,4.53
2023-12-16T06:58:17.600Z,4.54
2023-12-16T07:00:49.565Z,4.52
2023-12-16T07:03:21.274Z,4.53
2023-12-16T07:05:53.197Z,4.53
2023-12-16T07:08:24.741Z,4.51
2023-12-16T07:10:56.365Z,4.51
2023-12-16T07:13:27.979Z,4.52
2023-12-16T07:15:59.854Z,4.57
2023-12-16T07:18:31.723Z,4.61
2023-12-16T07:21:03.818Z,4.62
2023-12-16T07:23:35.402Z,4.63
2023-12-16T07:26:07.425Z,4.63
2023-12-16T07:28:39.384Z,4.63
2023-12-16T07:31:11.384Z,4.65
2023-12-16T07:33:43.131Z,4.69
2023-12-16T07:36:16.943Z,4.71
2023-12-16T07:38:48.626Z,4.71
2023-12-16T07:41:20.496Z,4.73
2023-12-16T07:43:52.265Z,4.77
2023-12-16T07:46:25.871Z,4.78
2023-12-16T07:48:57.663Z,4.81
2023-12-16T07:51:29.503Z,4.83
2023-12-16T07:54:01.285Z,4.85
2023-12-16T07:56:33.146Z,4.88
2023-12-16T07:59:04.975Z,4.88
2023-12-16T08:01:36.849Z,4.89
2023-12-16T08:04:08.593Z,4.92
2023-12-16T08:06:40.554Z,4.93
2023-12-16T08:09:12.135Z,4.94
2023-12-16T08:12:11.286Z,4.96
2023-12-16T08:14:41.598Z,4.97
2023-12-16T08:17:13.274Z,4.95
2023-12-16T08:19:45.220Z,4.95
2023-12-16T08:22:16.999Z,4.98
2023-12-16T08:24:48.859Z,5.04
2023-12-16T08:27:20.898Z,5.08
2023-12-16T08:30:34.178Z,5.14
2023-12-16T08:33:06.318Z,5.22
2023-12-16T08:35:38.697Z,5.26
2023-12-16T08:38:10.415Z,5.30
2023-12-16T08:40:42.122Z,5.32
2023-12-16T08:43:14.006Z,5.35
2023-12-16T08:45:45.646Z,5.38
2023-12-16T08:48:17.465Z,5.44
2023-12-16T08:50:49.189Z,5.46
2023-12-16T08:53:21.991Z,5.49
2023-12-16T08:55:53.694Z,5.51
2023-12-16T08:58:25.478Z,5.51
2023-12-16T09:00:57.296Z,5.55
2023-12-16T09:03:29.040Z,5.59
2023-12-16T09:06:28.848Z,5.64
2023-12-16T09:09:02.575Z,5.67
2023-12-16T09:11:34.239Z,5.66
2023-12-16T09:14:06.922Z,5.63
2023-12-16T09:16:38.794Z,5.61
2023-12-16T09:19:13.376Z,5.61
2023-12-16T09:21:46.531Z,5.64
2023-12-16T09:24:19.199Z,5.69
2023-12-16T09:26:51.257Z,5.70
2023-12-16T09:29:23.960Z,5.78
2023-12-16T09:31:56.705Z,5.82
2023-12-16T09:34:28.353Z,5.86
2023-12-16T09:37:00.033Z,5.92
2023-12-16T09:39:31.667Z,5.96
2023-12-16T09:42:03.854Z,6.02
2023-12-16T09:44:38.909Z,6.08
2023-12-16T09:47:12.359Z,6.14
2023-12-16T09:49:44.278Z,6.18
2023-12-16T09:52:16.060Z,6.20
2023-12-16T09:54:47.853Z,6.22
2023-12-16T09:57:20.397Z,6.24
2023-12-16T09:59:52.814Z,6.20
2023-12-16T10:02:27.906Z,6.20
2023-12-16T10:05:00.708Z,6.18
2023-12-16T10:07:32.504Z,6.18
2023-12-16T10:10:05.971Z,6.19
2023-12-16T10:12:38.156Z,6.21
2023-12-16T10:15:11.166Z,6.22
2023-12-16T10:17:52.410Z,6.23
2023-12-16T10:53:12.087Z,5.41
2023-12-16T10:55:45.285Z,5.40
2023-12-16T10:58:21.788Z,5.43
2023-12-16T11:00:52.273Z,5.51
2023-12-16T11:03:25.923Z,5.59
2023-12-16T11:05:57.438Z,5.66
2023-12-16T11:08:28.510Z,5.70
2023-12-16T11:11:35.447Z,5.79
2023-12-16T11:14:04.339Z,5.89
2023-12-16T11:16:40.648Z,5.96
2023-12-16T11:19:37.926Z,6.01
2023-12-16T11:22:06.441Z,6.08
2023-12-16T11:24:40.778Z,6.11
2023-12-16T11:27:09.880Z,6.20
2023-12-16T11:29:38.051Z,6.26
2023-12-16T11:32:34.424Z,6.31
2023-12-16T11:35:03.274Z,6.37
2023-12-16T11:37:44.462Z,6.42
2023-12-16T11:40:47.984Z,6.45
2023-12-16T11:43:16.269Z,6.48
2023-12-16T11:45:49.784Z,6.49
2023-12-16T11:48:19.385Z,6.54
2023-12-16T11:50:48.919Z,6.50
2023-12-16T11:53:19.727Z,6.55
2023-12-16T11:55:48.244Z,6.56
2023-12-16T11:58:19.032Z,6.57
2023-12-16T12:01:20.440Z,6.58
2023-12-16T12:03:52.265Z,6.57
2023-12-16T12:06:26.459Z,6.55
2023-12-16T12:08:57.274Z,6.58
2023-12-16T12:11:26.938Z,6.61
2023-12-16T12:13:56.536Z,6.63
2023-12-16T12:16:28.850Z,6.60
2023-12-16T12:18:57.942Z,6.62
2023-12-16T12:21:27.315Z,6.59
2023-12-16T12:23:56.592Z,6.62
2023-12-16T12:26:25.014Z,6.63
2023-12-16T12:29:01.116Z,6.61
2023-12-16T12:31:31.942Z,6.58
2023-12-16T12:34:00.740Z,6.53
2023-12-16T12:36:29.815Z,6.53
2023-12-16T12:38:59.583Z,6.52
2023-12-16T12:41:28.248Z,6.50
2023-12-16T12:43:56.805Z,6.49
2023-12-16T12:46:27.041Z,6.49
2023-12-16T12:48:56.507Z,6.52
2023-12-16T12:51:31.995Z,6.52
2023-12-16T12:54:03.186Z,6.50
2023-12-16T12:56:33.843Z,6.48
2023-12-16T12:59:56.913Z,6.48
2023-12-16T13:01:53.320Z,6.48
2023-12-16T13:04:25.318Z,6.50
2023-12-16T13:07:01.094Z,6.52
2023-12-16T13:09:32.773Z,6.51
2023-12-16T13:12:01.614Z,6.49
2023-12-16T13:14:30.180Z,6.42
2023-12-16T13:16:59.180Z,6.46
2023-12-16T13:19:28.960Z,6.45
2023-12-16T13:21:57.438Z,6.43
2023-12-16T13:24:27.565Z,6.43
2023-12-16T13:26:56.427Z,6.43
2023-12-16T13:29:31.671Z,6.44
2023-12-16T13:32:15.578Z,6.44
2023-12-16T13:34:44.607Z,6.42
2023-12-16T13:37:15.210Z,6.35
2023-12-16T13:39:49.941Z,6.36
2023-12-16T13:42:24.043Z,6.36
2023-12-16T13:44:52.888Z,6.37
2023-12-16T13:47:21.286Z,6.39
2023-12-16T13:49:50.176Z,6.42
2023-12-16T13:52:18.683Z,6.41
2023-12-16T13:54:47.559Z,6.37
2023-12-16T13:57:16.935Z,6.36
2023-12-16T13:59:45.586Z,6.31
2023-12-16T14:02:14.117Z,6.30
2023-12-16T14:04:44.330Z,6.27
2023-12-16T14:09:46.925Z,6.27
2023-12-16T14:12:15.212Z,6.29
2023-12-16T14:14:44.602Z,6.31
2023-12-16T14:17:14.384Z,6.30
2023-12-16T14:19:43.134Z,6.31
2023-12-16T14:22:11.930Z,6.31
2023-12-16T14:24:39.440Z,6.32
2023-12-16T14:27:08.812Z,6.31
2023-12-16T14:29:37.419Z,6.28
2023-12-16T14:32:07.321Z,6.27
2023-12-16T14:34:36.109Z,6.25
2023-12-16T14:37:05.431Z,6.26
2023-12-16T14:39:34.545Z,6.24
2023-12-16T14:42:03.027Z,6.30
2023-12-16T14:44:30.628Z,6.31
2023-12-16T14:46:59.159Z,6.27
2023-12-16T14:49:28.347Z,6.29
2023-12-16T14:51:57.040Z,6.31
2023-12-16T14:54:25.121Z,6.32
2023-12-16T14:56:53.693Z,6.33
2023-12-16T14:59:21.783Z,6.33
2023-12-16T15:01:50.645Z,6.34
2023-12-16T15:04:19.332Z,6.33
2023-12-16T15:06:47.902Z,6.32
2023-12-16T15:09:15.775Z,6.32
2023-12-16T15:11:44.655Z,6.31
2023-12-16T15:14:15.194Z,6.28
2023-12-16T15:16:44.127Z,6.26
2023-12-16T15:19:12.896Z,6.22
2023-12-16T15:21:41.859Z,6.20
2023-12-16T15:24:10.684Z,6.19
2023-12-16T15:26:39.480Z,6.18
2023-12-16T15:29:07.916Z,6.18
2023-12-16T15:31:40.822Z,6.13
2023-12-16T15:34:09.578Z,6.16
2023-12-16T15:36:38.183Z,6.16
2023-12-16T15:39:10.357Z,6.19
2023-12-16T15:41:39.256Z,6.22
2023-12-16T15:44:08.161Z,6.24
2023-12-16T15:46:41.340Z,6.25
2023-12-16T15:49:09.806Z,6.27
2023-12-16T15:51:38.497Z,6.32
2023-12-16T15:54:07.091Z,6.36
2023-12-16T15:56:39.529Z,6.40
2023-12-16T15:59:08.153Z,6.43
2023-12-16T16:01:37.877Z,6.45
2023-12-16T16:04:06.373Z,6.45
2023-12-16T16:06:35.951Z,6.44
2023-12-16T16:09:05.652Z,6.42
2023-12-16T16:11:34.353Z,6.43
2023-12-16T16:14:02.976Z,6.44
2023-12-16T16:16:32.412Z,6.44
2023-12-16T16:19:03.592Z,6.43
2023-12-16T16:21:34.402Z,6.42
2023-12-16T16:24:05.005Z,6.42
2023-12-16T16:26:33.668Z,6.43
2023-12-16T16:29:05.372Z,6.45
2023-12-16T16:31:38.174Z,6.46
2023-12-16T16:34:06.820Z,6.45
2023-12-16T16:36:35.983Z,6.43
2023-12-16T16:39:04.824Z,6.43
2023-12-16T16:41:33.471Z,6.43
2023-12-16T16:44:02.001Z,6.43
2023-12-16T16:46:29.708Z,6.43
2023-12-16T16:48:58.315Z,6.41
2023-12-16T16:51:28.526Z,6.41
2023-12-16T16:53:57.352Z,6.41
2023-12-16T16:56:25.796Z,6.43
2023-12-16T16:58:54.691Z,6.45
2023-12-16T17:01:23.153Z,6.46
2023-12-16T17:03:50.766Z,6.49
2023-12-16T17:06:19.856Z,6.48
2023-12-16T17:08:49.833Z,6.48
2023-12-16T17:11:23.365Z,6.48
2023-12-16T17:13:54.605Z,6.47
2023-12-16T17:16:26.327Z,6.49
2023-12-16T17:18:57.463Z,6.52
2023-12-16T17:21:25.867Z,6.56
2023-12-16T17:23:54.477Z,6.59
2023-12-16T17:26:56.212Z,6.63
2023-12-16T17:29:42.278Z,6.68
2023-12-16T17:32:12.819Z,6.70
2023-12-16T17:34:41.313Z,6.68
2023-12-16T17:37:11.233Z,6.65
2023-12-16T17:39:40.304Z,6.65
2023-12-16T17:42:17.653Z,6.65
2023-12-16T17:44:47.168Z,6.63
2023-12-16T17:47:17.095Z,6.61
2023-12-16T17:49:45.953Z,6.61
2023-12-16T17:52:14.600Z,6.63
2023-12-16T17:54:43.288Z,6.67
2023-12-16T17:57:17.011Z,6.69
2023-12-16T17:59:56.174Z,6.66
2023-12-16T18:02:36.134Z,6.70
2023-12-16T18:05:12.493Z,6.71
2023-12-16T18:07:50.970Z,6.70
2023-12-16T18:10:27.676Z,6.70
2023-12-16T18:13:11.725Z,6.72
2023-12-16T18:15:42.764Z,6.72
2023-12-16T18:18:18.397Z,6.70
2023-12-16T18:21:00.728Z,6.69
2023-12-16T18:23:44.789Z,6.68
2023-12-16T18:26:16.897Z,6.67
2023-12-16T18:29:00.240Z,6.64
2023-12-16T18:31:40.388Z,6.59
2023-12-16T18:34:16.109Z,6.50
2023-12-16T18:36:59.391Z,6.62
2023-12-16T18:39:38.736Z,6.63
2023-12-16T18:42:27.852Z,6.52
2023-12-16T18:45:09.770Z,6.48
2023-12-16T18:47:48.910Z,6.65
2023-12-16T18:50:48.636Z,6.66
2023-12-16T18:53:34.845Z,6.68
2023-12-16T18:56:13.943Z,6.71
2023-12-16T18:58:50.960Z,6.72
2023-12-16T19:01:26.055Z,6.68
2023-12-16T19:04:24.264Z,6.71
2023-12-16T19:07:03.872Z,6.64
2023-12-16T19:10:01.177Z,6.71
2023-12-16T19:12:37.490Z,6.63
2023-12-16T19:15:21.396Z,6.70
2023-12-16T19:17:53.060Z,6.72
2023-12-16T19:20:26.226Z,6.74
2023-12-16T19:22:55.107Z,6.76
2023-12-16T19:25:23.631Z,6.79
2023-12-16T19:27:58.660Z,6.80
2023-12-16T19:30:27.535Z,6.80
2023-12-16T19:32:59.370Z,6.78
2023-12-16T19:35:28.979Z,6.76
2023-12-16T19:38:01.438Z,6.73
2023-12-16T19:40:34.065Z,6.72
2023-12-16T19:43:08.993Z,6.74
2023-12-16T19:45:39.665Z,6.76
2023-12-16T19:48:19.992Z,6.76
2023-12-16T19:50:53.329Z,6.76
2023-12-16T19:53:22.769Z,6.73
2023-12-16T19:55:54.717Z,6.73
2023-12-16T19:58:24.334Z,6.71
2023-12-16T20:00:57.420Z,6.66
2023-12-16T20:03:35.177Z,6.68
2023-12-16T20:06:07.034Z,6.69
2023-12-16T20:08:37.915Z,6.71
2023-12-16T20:11:17.992Z,6.71
2023-12-16T20:13:51.176Z,6.70
2023-12-16T20:16:25.366Z,6.68
2023-12-16T20:18:54.132Z,6.67
2023-12-16T20:21:23.988Z,6.67
2023-12-16T20:24:05.095Z,6.69
2023-12-16T20:26:38.389Z,6.73
2023-12-16T20:29:25.503Z,6.74
2023-12-16T20:31:56.333Z,6.66
2023-12-16T20:34:25.327Z,6.73
2023-12-16T20:36:54.188Z,6.70
2023-12-16T20:39:44.086Z,6.70
2023-12-16T20:42:15.030Z,6.71
2023-12-16T20:44:43.978Z,6.71
2023-12-16T20:47:16.352Z,6.72
2023-12-16T20:50:02.964Z,6.72
2023-12-16T20:52:45.100Z,6.72
2023-12-16T20:55:18.161Z,6.70
2023-12-16T20:57:50.447Z,6.70
2023-12-16T21:00:24.202Z,6.68
2023-12-16T21:02:54.375Z,6.67
2023-12-16T21:05:24.173Z,6.66
2023-12-16T21:07:53.675Z,6.66
2023-12-16T21:10:24.835Z,6.68
2023-12-16T21:12:53.227Z,6.66
2023-12-16T21:15:21.878Z,6.65
2023-12-16T21:17:52.646Z,6.63
2023-12-16T21:20:25.562Z,6.63
2023-12-16T21:22:54.250Z,6.64
2023-12-16T21:25:23.191Z,6.66
2023-12-16T21:27:51.723Z,6.63
2023-12-16T21:30:24.156Z,6.61
2023-12-16T21:32:53.191Z,6.56
2023-12-16T21:35:24.461Z,6.48
2023-12-16T21:37:53.597Z,6.51
2023-12-16T21:40:22.047Z,6.49
2023-12-16T21:42:49.529Z,6.49
2023-12-16T21:45:19.449Z,6.48
2023-12-16T21:47:53.070Z,6.47
2023-12-16T21:50:23.745Z,6.46
2023-12-16T21:52:54.025Z,6.47
2023-12-16T21:55:27.070Z,6.47
2023-12-16T21:57:55.854Z,6.43
2023-12-16T22:00:24.292Z,6.40
2023-12-16T22:02:52.715Z,6.30
2023-12-16T22:05:21.177Z,6.33
2023-12-16T22:07:49.860Z,6.29
2023-12-16T22:10:18.742Z,6.23
2023-12-16T22:12:47.991Z,6.17
2023-12-16T22:15:17.518Z,6.13
2023-12-16T22:17:46.496Z,6.10
2023-12-16T22:20:20.464Z,6.07
2023-12-16T22:22:49.459Z,6.06
2023-12-16T22:25:27.022Z,6.04
2023-12-16T22:27:55.494Z,6.02
2023-12-16T22:30:24.337Z,6.00
2023-12-16T22:32:52.704Z,5.99
2023-12-16T22:35:22.922Z,6.02
2023-12-16T22:37:52.509Z,6.01
2023-12-16T22:40:25.713Z,5.99
2023-12-16T22:42:54.168Z,5.97
2023-12-16T22:45:23.176Z,5.96
2023-12-16T22:47:53.216Z,5.92
2023-12-16T22:50:21.783Z,5.90
2023-12-16T22:52:53.211Z,5.88
2023-12-16T22:55:21.709Z,5.88
2023-12-16T22:57:52.925Z,5.83
2023-12-16T23:00:26.083Z,5.86
2023-12-16T23:02:54.675Z,5.88
2023-12-16T23:05:23.631Z,5.90
2023-12-16T23:07:52.605Z,5.92
2023-12-16T23:10:26.008Z,5.93
2023-12-16T23:12:56.184Z,5.95
2023-12-16T23:15:24.911Z,5.94
2023-12-16T23:17:53.731Z,5.95
2023-12-16T23:20:22.641Z,5.97
2023-12-16T23:22:51.308Z,6.00
2023-12-16T23:25:24.512Z,6.03
2023-12-16T23:27:53.122Z,6.02
2023-12-16T23:30:23.004Z,5.99
2023-12-16T23:32:53.974Z,6.02
2023-12-16T23:35:25.409Z,6.00
2023-12-16T23:37:53.928Z,5.95
2023-12-16T23:40:21.678Z,5.98
2023-12-16T23:42:50.284Z,5.97
2023-12-16T23:45:21.938Z,5.96
2023-12-16T23:47:50.494Z,5.93
2023-12-16T23:50:21.469Z,5.91
2023-12-16T23:52:50.406Z,5.94
2023-12-16T23:55:19.026Z,5.95
2023-12-16T23:57:48.187Z,5.94
